Time;durP1;ratioP1;P1;durP2;ratioP2;P2;SDS_P1;SDS_P2;PMS_P1;PMS_P2;Temp;Humidity;BMP_temperature;BMP_pressure;BME280_temperature;BME280_humidity;BME280_pressure;Samples;Min_cycle;Max_cycle;Signal;HPM_P1;HPM_P2
2023/07/18 00:01:49;;;;;;;;;;;;;;;21.25;88.17;95423.19;5114694;28;1108;-54
2023/07/18 00:04:15;;;;;;;;;;;;;;;20.97;89.57;95425.47;5114637;28;1132;-54
2023/07/18 00:06:42;;;;;;;;;;;;;;;21.00;89.54;95420.44;5114575;28;932;-54
2023/07/18 00:09:08;;;;;;;;;;;;;;;20.95;89.60;95417.53;5114531;28;1148;-54
2023/07/18 00:11:34;;;;;;;;;;;;;;;20.84;90.35;95423.69;5114732;28;1268;-54
2023/07/18 00:14:00;;;;;;;;;;;;;;;20.77;90.46;95418.31;5113460;28;1057;-53
2023/07/18 00:16:26;;;;;;;;;;;;;;;20.80;90.53;95415.13;5114510;28;1036;-54
2023/07/18 00:18:52;;;;;;;;;;;;;;;20.65;91.19;95412.69;5114384;28;1910;-54
2023/07/18 00:21:19;;;;;;;;;;;;;;;20.73;91.20;95416.22;5114380;28;980;-54
2023/07/18 00:23:46;;;;;;;;;;;;;;;20.75;90.39;95412.22;5114608;28;961;-54
2023/07/18 00:26:13;;;;;;;;;;;;;;;20.98;89.40;95411.69;5130272;27;969;-54
2023/07/18 00:32:39;;;;;;;;;;;;;;;20.97;88.70;95411.91;5073645;28;1373;-54
2023/07/18 00:35:06;;;;;;;;;;;;;;;20.88;89.18;95402.34;5073721;28;1067;-54
2023/07/18 00:37:32;;;;;;;;;;;;;;;20.84;89.35;95396.50;5073634;28;965;-54
2023/07/18 00:39:58;;;;;;;;;;;;;;;20.85;89.98;95400.91;5073465;28;1992;-54
2023/07/18 00:42:24;;;;;;;;;;;;;;;20.75;89.61;95404.06;5073399;28;1097;-54
2023/07/18 00:44:50;;;;;;;;;;;;;;;20.80;89.85;95398.81;5073687;28;1039;-54
2023/07/18 00:47:17;;;;;;;;;;;;;;;20.74;89.50;95405.13;5072495;28;961;-54
2023/07/18 00:49:44;;;;;;;;;;;;;;;20.63;89.65;95405.84;5073572;28;1000;-54
2023/07/18 00:52:10;;;;;;;;;;;;;;;20.78;89.64;95390.06;5073405;28;1144;-54
2023/07/18 00:54:36;;;;;;;;;;;;;;;20.79;89.37;95394.47;5072625;28;1875;-54
2023/07/18 00:57:03;;;;;;;;;;;;;;;20.74;89.61;95399.72;5073322;28;1230;-54
2023/07/18 00:59:29;;;;;;;;;;;;;;;20.77;89.45;95391.13;5073487;28;1913;-54
2023/07/18 01:01:55;;;;;;;;;;;;;;;20.84;89.47;95394.59;5073505;28;1028;-54
2023/07/18 01:04:21;;;;;;;;;;;;;;;20.71;89.43;95396.59;5072117;28;924;-54
2023/07/18 01:06:48;;;;;;;;;;;;;;;20.47;90.41;95399.00;5073355;28;1079;-54
2023/07/18 01:09:14;;;;;;;;;;;;;;;20.39;91.58;95394.63;5073307;28;985;-54
2023/07/18 01:11:40;;;;;;;;;;;;;;;20.46;90.99;95395.44;5073183;28;984;-54
2023/07/18 01:14:06;;;;;;;;;;;;;;;20.25;91.42;95391.16;5073227;28;1106;-54
2023/07/18 01:16:32;;;;;;;;;;;;;;;20.13;91.82;95386.59;5073378;28;988;-54
2023/07/18 01:18:58;;;;;;;;;;;;;;;20.00;92.29;95377.47;5073262;28;1918;-54
2023/07/18 01:21:24;;;;;;;;;;;;;;;20.00;92.40;95388.34;5073244;28;1035;-54
2023/07/18 01:23:50;;;;;;;;;;;;;;;19.99;92.76;95391.25;5073119;28;1308;-54
2023/07/18 01:26:16;;;;;;;;;;;;;;;19.84;93.86;95384.22;5073055;28;1057;-54
2023/07/18 01:28:42;;;;;;;;;;;;;;;19.86;93.61;95383.97;5073316;28;964;-54
2023/07/18 01:31:09;;;;;;;;;;;;;;;19.94;92.82;95383.78;5090437;28;1079;-54
2023/07/18 01:33:35;;;;;;;;;;;;;;;19.96;92.94;95386.28;5113724;28;1016;-54
2023/07/18 01:36:01;;;;;;;;;;;;;;;19.87;93.12;95386.50;5113689;28;1028;-54
2023/07/18 01:38:29;;;;;;;;;;;;;;;19.87;93.57;95391.91;5113425;28;1992;-54
2023/07/18 01:40:59;;;;;;;;;;;;;;;20.15;91.75;95392.69;5113456;28;1027;-54
2023/07/18 01:43:25;;;;;;;;;;;;;;;20.47;89.67;95394.41;5113719;28;965;-54
2023/07/18 01:45:51;;;;;;;;;;;;;;;20.51;89.17;95385.78;5113469;28;1076;-54
2023/07/18 01:48:18;;;;;;;;;;;;;;;20.55;88.97;95384.34;5113441;28;1037;-54
2023/07/18 01:50:44;;;;;;;;;;;;;;;20.20;90.77;95382.81;5113414;28;1995;-54
2023/07/18 01:53:13;;;;;;;;;;;;;;;20.05;91.62;95388.53;5113434;28;1197;-54
2023/07/18 01:55:39;;;;;;;;;;;;;;;19.98;91.96;95382.28;5113343;28;1023;-54
2023/07/18 01:58:05;;;;;;;;;;;;;;;19.81;92.68;95379.22;5113571;28;1040;-54
2023/07/18 02:00:32;;;;;;;;;;;;;;;19.68;93.33;95382.75;5113236;28;1978;-54
2023/07/18 02:02:58;;;;;;;;;;;;;;;19.66;92.94;95386.72;5113290;28;1025;-54
2023/07/18 02:05:25;;;;;;;;;;;;;;;20.00;91.52;95385.63;5114704;28;964;-54
2023/07/18 02:07:52;;;;;;;;;;;;;;;20.12;90.05;95388.50;5116972;28;1043;-54
2023/07/18 02:10:20;;;;;;;;;;;;;;;20.11;90.79;95389.56;5117171;28;1047;-54
2023/07/18 02:12:46;;;;;;;;;;;;;;;20.07;90.50;95389.16;5117082;28;1043;-54
2023/07/18 02:15:15;;;;;;;;;;;;;;;19.99;91.34;95386.66;5116994;28;984;-54
2023/07/18 02:17:44;;;;;;;;;;;;;;;20.06;91.62;95390.19;5116741;28;1082;-54
2023/07/18 02:20:11;;;;;;;;;;;;;;;20.03;91.06;95387.06;5116734;28;1905;-54
2023/07/18 02:22:39;;;;;;;;;;;;;;;19.88;92.11;95400.88;5116624;28;1013;-53
2023/07/18 02:25:06;;;;;;;;;;;;;;;19.76;92.58;95391.75;5116597;28;913;-54
2023/07/18 02:27:34;;;;;;;;;;;;;;;19.91;92.13;95386.91;5116740;28;1069;-54
2023/07/18 02:30:03;;;;;;;;;;;;;;;20.05;91.37;95390.38;5116556;28;1029;-54
2023/07/18 02:32:29;;;;;;;;;;;;;;;19.98;91.31;95390.44;5116373;28;2124;-54
2023/07/18 02:34:56;;;;;;;;;;;;;;;19.94;91.28;95397.34;5116485;28;973;-53
2023/07/18 02:37:23;;;;;;;;;;;;;;;19.80;91.92;95401.94;5116282;28;1045;-54
2023/07/18 02:39:49;;;;;;;;;;;;;;;19.89;92.21;95408.00;5116479;28;1898;-54
2023/07/18 02:42:15;;;;;;;;;;;;;;;19.92;92.77;95404.00;5116429;28;949;-54
2023/07/18 02:44:41;;;;;;;;;;;;;;;19.88;92.48;95404.44;5116188;28;1053;-53
2023/07/18 02:47:07;;;;;;;;;;;;;;;19.82;91.58;95412.59;5116307;28;1044;-54
2023/07/18 02:49:33;;;;;;;;;;;;;;;19.64;92.33;95416.78;5116199;28;981;-54
2023/07/18 02:51:59;;;;;;;;;;;;;;;19.70;92.37;95421.34;5116031;28;1020;-54
2023/07/18 02:54:25;;;;;;;;;;;;;;;19.56;92.93;95408.88;5116006;28;1108;-54
2023/07/18 02:56:51;;;;;;;;;;;;;;;19.50;93.18;95407.84;5114883;28;1881;-54
2023/07/18 02:59:21;;;;;;;;;;;;;;;19.45;94.12;95409.50;5115799;28;1990;-54
2023/07/18 03:01:49;;;;;;;;;;;;;;;19.48;93.83;95409.06;5115894;28;1104;-54
2023/07/18 03:04:16;;;;;;;;;;;;;;;19.51;93.29;95417.63;5115945;28;1040;-54
2023/07/18 03:06:42;;;;;;;;;;;;;;;19.65;92.92;95420.31;5115755;28;1044;-54
2023/07/18 03:09:09;;;;;;;;;;;;;;;19.89;90.59;95418.84;5116043;28;1214;-54
2023/07/18 03:11:35;;;;;;;;;;;;;;;20.05;89.95;95417.53;5115901;28;1105;-54
2023/07/18 03:14:01;;;;;;;;;;;;;;;19.87;91.37;95426.38;5115876;28;996;-54
2023/07/18 03:16:27;;;;;;;;;;;;;;;19.50;93.02;95425.97;5115083;28;1218;-53
2023/07/18 03:18:54;;;;;;;;;;;;;;;19.51;93.35;95422.22;5115436;28;1976;-54
2023/07/18 03:21:20;;;;;;;;;;;;;;;19.55;93.21;95426.16;5115506;28;1039;-53
2023/07/18 03:23:46;;;;;;;;;;;;;;;19.64;93.35;95432.22;5115425;28;1088;-54
2023/07/18 03:26:12;;;;;;;;;;;;;;;19.81;92.41;95429.94;5115603;28;984;-54
2023/07/18 03:28:38;;;;;;;;;;;;;;;19.93;91.27;95430.94;5115511;28;1016;-54
2023/07/18 03:31:04;;;;;;;;;;;;;;;19.88;91.69;95438.88;5115181;28;1211;-54
2023/07/18 03:33:30;;;;;;;;;;;;;;;19.77;92.73;95434.09;5115355;28;953;-54
2023/07/18 03:35:57;;;;;;;;;;;;;;;19.96;91.19;95427.81;5115125;28;1163;-54
2023/07/18 03:38:23;;;;;;;;;;;;;;;19.88;91.98;95442.44;5115165;28;1115;-53
2023/07/18 03:40:49;;;;;;;;;;;;;;;19.89;92.58;95440.56;5115066;28;1914;-55
2023/07/18 03:43:15;;;;;;;;;;;;;;;20.02;92.22;95428.84;5115232;28;965;-55
2023/07/18 03:45:41;;;;;;;;;;;;;;;19.93;92.35;95440.97;5115084;28;1031;-55
2023/07/18 03:48:07;;;;;;;;;;;;;;;19.98;92.24;95435.75;5115070;28;1031;-55
2023/07/18 03:50:33;;;;;;;;;;;;;;;20.09;92.11;95438.63;5114880;28;1005;-54
2023/07/18 03:52:59;;;;;;;;;;;;;;;20.04;92.76;95440.31;5115066;28;984;-54
2023/07/18 03:55:25;;;;;;;;;;;;;;;20.26;91.45;95433.56;5114911;28;1124;-54
2023/07/18 03:57:51;;;;;;;;;;;;;;;20.48;90.50;95434.06;5114977;28;961;-54
2023/07/18 04:00:18;;;;;;;;;;;;;;;20.57;90.46;95442.00;5114712;28;1921;-54
2023/07/18 04:02:46;;;;;;;;;;;;;;;20.50;91.30;95450.16;5114661;28;976;-54
2023/07/18 04:05:14;;;;;;;;;;;;;;;20.39;91.40;95440.78;5114403;28;1228;-55
2023/07/18 04:07:41;;;;;;;;;;;;;;;20.33;93.12;95435.41;5114850;28;1056;-54
2023/07/18 04:10:07;;;;;;;;;;;;;;;20.61;91.46;95440.53;5114763;28;969;-54
2023/07/18 04:12:33;;;;;;;;;;;;;;;20.76;92.10;95445.69;5114754;28;957;-54
2023/07/18 04:14:59;;;;;;;;;;;;;;;20.95;90.60;95443.91;5114595;28;1070;-54
2023/07/18 04:17:25;;;;;;;;;;;;;;;20.95;91.90;95446.63;5114505;28;1072;-54
2023/07/18 04:19:52;;;;;;;;;;;;;;;21.00;91.67;95444.91;5114344;28;1993;-54
2023/07/18 04:22:18;;;;;;;;;;;;;;;21.11;90.44;95443.34;5114679;28;961;-54
2023/07/18 04:24:44;;;;;;;;;;;;;;;21.40;90.29;95449.22;5114267;28;1092;-54
2023/07/18 04:27:10;;;;;;;;;;;;;;;21.54;88.81;95445.34;5113081;28;1453;-54
2023/07/18 04:29:36;;;;;;;;;;;;;;;21.72;87.65;95449.19;5114273;28;997;-54
2023/07/18 04:32:02;;;;;;;;;;;;;;;21.86;87.96;95455.34;5114140;28;1096;-53
2023/07/18 04:34:28;;;;;;;;;;;;;;;21.76;90.67;95453.09;5114165;28;1104;-53
2023/07/18 04:36:54;;;;;;;;;;;;;;;21.72;90.21;95447.31;5112979;28;1132;-54
2023/07/18 04:39:20;;;;;;;;;;;;;;;21.93;88.36;95456.09;5113981;28;1905;-54
2023/07/18 04:41:46;;;;;;;;;;;;;;;22.08;84.69;95453.00;5114294;28;1029;-54
2023/07/18 04:44:12;;;;;;;;;;;;;;;22.30;83.85;95454.25;5112814;28;1081;-54
2023/07/18 04:46:38;;;;;;;;;;;;;;;22.55;81.70;95458.78;5114134;28;976;-54
2023/07/18 04:49:04;;;;;;;;;;;;;;;22.73;82.25;95457.94;5113949;28;1105;-54
2023/07/18 04:51:30;;;;;;;;;;;;;;;22.83;81.57;95454.66;5114234;28;1025;-54
2023/07/18 04:53:57;;;;;;;;;;;;;;;22.94;80.55;95440.25;5112914;28;1463;-54
2023/07/18 04:56:23;;;;;;;;;;;;;;;23.11;80.15;95445.91;5114047;28;1030;-55
2023/07/18 04:58:49;;;;;;;;;;;;;;;23.21;80.58;95448.06;5112797;28;2007;-55
2023/07/18 05:01:15;;;;;;;;;;;;;;;23.25;81.33;95441.06;5113927;28;953;-55
2023/07/18 05:03:41;;;;;;;;;;;;;;;23.18;79.86;95444.75;5112649;28;973;-55
2023/07/18 05:06:07;;;;;;;;;;;;;;;23.34;80.46;95445.13;5113797;28;1088;-55
2023/07/18 05:08:33;;;;;;;;;;;;;;;23.47;76.23;95444.09;5114018;28;1015;-55
2023/07/18 05:11:03;;;;;;;;;;;;;;;23.73;79.79;95446.38;5113851;28;912;-55
2023/07/18 05:13:29;;;;;;;;;;;;;;;23.73;78.20;95440.91;5113881;28;1022;-55
2023/07/18 05:15:58;;;;;;;;;;;;;;;23.95;76.62;95437.63;5113800;28;1062;-55
2023/07/18 05:18:24;;;;;;;;;;;;;;;23.89;74.88;95441.31;5113701;28;1003;-55
2023/07/18 05:20:53;;;;;;;;;;;;;;;23.96;77.41;95442.84;5113891;28;1979;-55
2023/07/18 05:23:19;;;;;;;;;;;;;;;24.17;77.89;95448.78;5113692;28;1052;-55
2023/07/18 05:25:45;;;;;;;;;;;;;;;24.40;76.85;95449.78;5113669;28;1112;-55
2023/07/18 05:28:11;;;;;;;;;;;;;;;24.50;77.14;95445.38;5113642;28;1061;-55
2023/07/18 05:30:37;;;;;;;;;;;;;;;24.57;75.38;95453.47;5112219;28;1305;-55
2023/07/18 05:33:03;;;;;;;;;;;;;;;24.57;75.17;95456.22;5113586;28;972;-55
2023/07/18 05:35:29;;;;;;;;;;;;;;;24.50;76.17;95453.56;5113584;28;1045;-55
2023/07/18 05:37:56;;;;;;;;;;;;;;;24.54;76.88;95459.41;5112571;28;986;-55
2023/07/18 05:40:22;;;;;;;;;;;;;;;24.75;73.44;95460.66;5113782;28;1913;-55
2023/07/18 05:42:48;;;;;;;;;;;;;;;24.73;73.10;95458.16;5117465;28;1127;-55
2023/07/18 05:45:14;;;;;;;;;;;;;;;24.86;73.91;95457.06;5117565;28;972;-55
2023/07/18 05:47:41;;;;;;;;;;;;;;;24.97;74.52;95458.09;5117407;28;1028;-55
2023/07/18 05:50:07;;;;;;;;;;;;;;;25.21;72.48;95457.97;5117317;28;1081;-55
2023/07/18 05:52:33;;;;;;;;;;;;;;;25.16;72.64;95461.47;5117197;28;1328;-55
2023/07/18 05:54:59;;;;;;;;;;;;;;;25.18;71.48;95458.50;5117399;28;984;-55
2023/07/18 05:57:26;;;;;;;;;;;;;;;25.35;73.39;95456.63;5117195;28;1061;-55
2023/07/18 05:59:51;;;;;;;;;;;;;;;25.63;71.50;95455.75;5117058;28;1902;-55
2023/07/18 06:02:19;;;;;;;;;;;;;;;25.81;70.70;95457.41;5117024;28;976;-55
2023/07/18 06:04:45;;;;;;;;;;;;;;;25.88;70.96;95458.06;5117312;28;973;-55
2023/07/18 06:07:11;;;;;;;;;;;;;;;25.77;70.74;95453.50;5116916;28;1061;-55
2023/07/18 06:09:38;;;;;;;;;;;;;;;25.72;70.53;95456.16;5117088;28;976;-55
2023/07/18 06:12:06;;;;;;;;;;;;;;;25.82;69.64;95456.34;5116883;27;1064;-55
2023/07/18 06:14:33;;;;;;;;;;;;;;;25.98;70.73;95456.59;5116906;27;1056;-55
2023/07/18 06:16:59;;;;;;;;;;;;;;;26.17;71.97;95466.19;5115656;28;1041;-55
2023/07/18 06:19:25;;;;;;;;;;;;;;;26.16;69.27;95463.69;5115628;28;1960;-55
2023/07/18 06:21:51;;;;;;;;;;;;;;;26.25;69.94;95463.00;5116877;28;996;-55
2023/07/18 06:24:17;;;;;;;;;;;;;;;26.35;67.96;95464.25;5116683;27;1057;-55
2023/07/18 06:26:49;;;;;;;;;;;;;;;26.59;68.26;95467.59;5116700;28;1024;-55
2023/07/18 06:29:17;;;;;;;;;;;;;;;26.64;68.56;95464.94;5116530;28;1116;-55
2023/07/18 06:31:44;;;;;;;;;;;;;;;26.51;69.79;95462.56;5116342;28;1233;-55
2023/07/18 06:34:10;;;;;;;;;;;;;;;26.64;69.57;95460.28;5116495;28;1080;-55
2023/07/18 06:36:36;;;;;;;;;;;;;;;26.68;67.82;95457.88;5116713;28;1111;-55
2023/07/18 06:39:02;;;;;;;;;;;;;;;26.88;67.71;95460.00;5116410;28;1913;-55
2023/07/18 06:41:28;;;;;;;;;;;;;;;26.95;67.18;95463.38;5116390;28;1120;-55
2023/07/18 06:43:54;;;;;;;;;;;;;;;26.92;66.40;95454.84;5115076;28;1072;-55
2023/07/18 06:46:21;;;;;;;;;;;;;;;26.94;65.96;95459.00;5114971;28;1037;-55
2023/07/18 06:48:47;;;;;;;;;;;;;;;27.32;64.74;95457.25;5116268;28;1107;-55
2023/07/18 06:51:14;;;;;;;;;;;;;;;27.66;65.12;95457.00;5115472;28;1040;-55
2023/07/18 06:53:40;;;;;;;;;;;;;;;27.79;66.63;95452.97;5115824;28;1039;-55
2023/07/18 06:56:06;;;;;;;;;;;;;;;27.91;65.02;95453.66;5116123;28;985;-55
2023/07/18 06:58:32;;;;;;;;;;;;;;;28.16;62.97;95447.50;5114785;28;1056;-55
2023/07/18 07:00:58;;;;;;;;;;;;;;;28.34;61.56;95449.00;5116168;28;1914;-55
2023/07/18 07:03:24;;;;;;;;;;;;;;;28.50;63.21;95446.34;5114928;28;1023;-55
2023/07/18 07:05:50;;;;;;;;;;;;;;;28.62;61.25;95453.28;5115861;28;1025;-55
2023/07/18 07:08:18;;;;;;;;;;;;;;;28.53;61.05;95448.56;5115923;28;965;-55
2023/07/18 07:10:45;;;;;;;;;;;;;;;28.54;62.86;95447.47;5115911;28;988;-58
2023/07/18 07:13:11;;;;;;;;;;;;;;;28.54;65.57;95440.06;5115677;28;1131;-55
2023/07/18 07:15:38;;;;;;;;;;;;;;;28.53;63.69;95445.81;5115985;28;1023;-56
2023/07/18 07:18:04;;;;;;;;;;;;;;;28.45;64.24;95444.38;5115878;27;1048;-56
2023/07/18 07:20:31;;;;;;;;;;;;;;;28.48;64.83;95437.53;5115534;28;1990;-56
2023/07/18 07:22:57;;;;;;;;;;;;;;;28.56;64.80;95445.28;5115668;28;1024;-55
2023/07/18 07:25:28;;;;;;;;;;;;;;;28.56;62.47;95448.03;5115563;28;1032;-55
2023/07/18 07:27:54;;;;;;;;;;;;;;;28.66;63.00;95437.06;5115427;28;961;-56
2023/07/18 07:30:21;;;;;;;;;;;;;;;28.79;62.58;95442.06;5115196;28;1111;-56
2023/07/18 07:32:48;;;;;;;;;;;;;;;28.93;64.56;95436.91;5115551;28;985;-55
2023/07/18 07:35:18;;;;;;;;;;;;;;;29.12;64.15;95436.41;5115441;28;969;-55
2023/07/18 07:37:44;;;;;;;;;;;;;;;29.26;62.44;95428.50;5115404;28;965;-55
2023/07/18 07:40:11;;;;;;;;;;;;;;;29.55;62.16;95432.38;5115179;28;1913;-56
2023/07/18 07:42:38;;;;;;;;;;;;;;;29.84;62.92;95437.38;5115078;28;945;-55
2023/07/18 07:45:04;;;;;;;;;;;;;;;29.97;62.77;95433.22;5113924;28;1041;-55
2023/07/18 07:47:30;;;;;;;;;;;;;;;29.40;63.18;95437.88;5115013;28;1159;-55
2023/07/18 07:49:56;;;;;;;;;;;;;;;29.07;65.09;95437.22;5115139;27;1032;-55
2023/07/18 07:52:22;;;;;;;;;;;;;;;28.82;65.99;95435.22;5113706;28;1052;-55
2023/07/18 07:54:48;;;;;;;;;;;;;;;28.59;65.07;95440.09;5114923;28;1056;-56
2023/07/18 07:57:15;;;;;;;;;;;;;;;28.58;65.34;95429.34;5114687;28;1028;-56
2023/07/18 07:59:42;;;;;;;;;;;;;;;28.76;64.57;95428.03;5114370;28;1994;-56
2023/07/18 08:02:08;;;;;;;;;;;;;;;28.72;65.57;95421.41;5113367;28;1136;-56
2023/07/18 08:04:36;;;;;;;;;;;;;;;28.84;64.02;95422.03;5111399;28;1139;-56
2023/07/18 08:07:03;;;;;;;;;;;;;;;29.47;64.72;95423.84;5112709;28;1049;-56
2023/07/18 08:09:29;;;;;;;;;;;;;;;30.06;61.61;95433.50;5112783;28;1055;-56
2023/07/18 08:11:55;;;;;;;;;;;;;;;30.37;59.88;95426.00;5114274;28;1042;-56
2023/07/18 08:14:21;;;;;;;;;;;;;;;30.21;64.14;95427.13;5114656;28;1036;-56
2023/07/18 08:16:48;;;;;;;;;;;;;;;30.44;62.56;95431.25;5114094;28;1028;-56
2023/07/18 08:19:15;;;;;;;;;;;;;;;30.81;63.19;95425.31;5114423;28;1914;-56
2023/07/18 08:21:41;;;;;;;;;;;;;;;31.00;63.46;95430.22;5114436;28;1022;-56
2023/07/18 08:24:07;;;;;;;;;;;;;;;30.46;61.02;95432.59;5114364;28;1047;-56
2023/07/18 08:26:33;;;;;;;;;;;;;;;30.07;63.78;95419.44;5114214;28;965;-56
2023/07/18 08:28:59;;;;;;;;;;;;;;;30.39;61.19;95425.72;5114364;28;1044;-56
2023/07/18 08:31:25;;;;;;;;;;;;;;;30.77;64.18;95415.94;5114147;28;1092;-56
2023/07/18 08:33:51;;;;;;;;;;;;;;;31.12;61.50;95428.75;5114140;28;1049;-56
2023/07/18 08:36:17;;;;;;;;;;;;;;;31.41;62.09;95421.69;5114135;28;1058;-56
2023/07/18 08:38:49;;;;;;;;;;;;;;;31.60;57.79;95424.63;5114018;28;2000;-56
2023/07/18 08:41:19;;;;;;;;;;;;;;;31.61;57.42;95421.56;5114300;28;957;-56
2023/07/18 08:43:46;;;;;;;;;;;;;;;31.71;57.58;95424.25;5114277;28;1012;-56
2023/07/18 08:46:13;;;;;;;;;;;;;;;31.92;57.48;95424.06;5114179;28;1043;-55
2023/07/18 08:48:43;;;;;;;;;;;;;;;31.79;58.22;95425.56;5113931;28;1135;-56
2023/07/18 08:51:09;;;;;;;;;;;;;;;32.00;58.62;95420.69;5113918;28;984;-56
2023/07/18 08:53:35;;;;;;;;;;;;;;;31.85;59.50;95418.91;5113883;28;1033;-56
2023/07/18 08:56:03;;;;;;;;;;;;;;;31.60;58.92;95408.84;5113825;28;1056;-56
2023/07/18 08:58:29;;;;;;;;;;;;;;;31.57;60.11;95412.22;5113826;28;1069;-56
2023/07/18 09:00:54;;;;;;;;;;;;;;;31.57;60.17;95409.44;5113902;28;1906;-56
2023/07/18 09:03:20;;;;;;;;;;;;;;;31.95;59.76;95406.06;5113836;28;985;-56
2023/07/18 09:05:46;;;;;;;;;;;;;;;32.03;57.25;95406.31;5113814;28;1058;-56
2023/07/18 09:08:12;;;;;;;;;;;;;;;32.21;55.92;95395.63;5113649;28;1012;-56
2023/07/18 09:10:39;;;;;;;;;;;;;;;32.40;60.28;95404.81;5113692;28;1041;-56
2023/07/18 09:13:05;;;;;;;;;;;;;;;32.55;56.93;95403.00;5113926;28;1000;-56
2023/07/18 09:15:36;;;;;;;;;;;;;;;32.62;58.93;95395.19;5115445;28;1004;-56
2023/07/18 09:18:02;;;;;;;;;;;;;;;32.62;57.41;95398.78;5117963;28;1092;-56
2023/07/18 09:20:32;;;;;;;;;;;;;;;32.68;57.46;95396.78;5117864;28;1999;-56
2023/07/18 09:22:59;;;;;;;;;;;;;;;32.74;55.45;95403.06;5117782;28;1104;-55
2023/07/18 09:25:26;;;;;;;;;;;;;;;32.76;55.26;95393.34;5117732;28;1116;-55
2023/07/18 09:27:55;;;;;;;;;;;;;;;32.85;55.46;95396.28;5117924;28;1043;-55
2023/07/18 09:30:22;;;;;;;;;;;;;;;32.96;55.79;95388.69;5117681;28;1072;-56
2023/07/18 09:32:52;;;;;;;;;;;;;;;32.96;55.03;95389.50;5117818;27;973;-55
2023/07/18 09:35:18;;;;;;;;;;;;;;;32.99;52.55;95390.84;5117609;28;961;-55
2023/07/18 09:37:48;;;;;;;;;;;;;;;33.03;54.33;95389.09;5117820;28;1016;-55
2023/07/18 09:40:15;;;;;;;;;;;;;;;32.93;53.75;95387.31;5117430;28;1906;-55
2023/07/18 09:42:46;;;;;;;;;;;;;;;33.00;53.44;95386.94;5117535;28;1020;-55
2023/07/18 09:45:13;;;;;;;;;;;;;;;33.04;51.94;95388.00;5117406;28;1069;-55
2023/07/18 09:47:41;;;;;;;;;;;;;;;33.10;53.69;95385.97;5117477;27;957;-55
2023/07/18 09:50:08;;;;;;;;;;;;;;;33.14;53.24;95384.28;5117322;28;1039;-55
2023/07/18 09:52:35;;;;;;;;;;;;;;;33.14;53.93;95376.78;5116161;28;1594;-55
2023/07/18 09:55:04;;;;;;;;;;;;;;;33.08;53.67;95372.44;5116207;28;1064;-55
2023/07/18 09:57:30;;;;;;;;;;;;;;;33.16;49.85;95374.56;5117440;28;1051;-55
2023/07/18 10:00:02;;;;;;;;;;;;;;;33.23;50.81;95372.22;5117096;28;2000;-55
2023/07/18 10:02:28;;;;;;;;;;;;;;;33.32;47.71;95374.34;5117113;28;1089;-55
2023/07/18 10:04:54;;;;;;;;;;;;;;;33.36;48.59;95367.06;5117247;28;1046;-55
2023/07/18 10:07:21;;;;;;;;;;;;;;;33.34;49.48;95361.81;5117209;28;977;-55
2023/07/18 10:09:47;;;;;;;;;;;;;;;33.28;48.00;95365.81;5117103;27;969;-55
2023/07/18 10:12:13;;;;;;;;;;;;;;;33.22;47.22;95364.22;5117078;28;973;-55
2023/07/18 10:14:42;;;;;;;;;;;;;;;33.32;46.86;95371.56;5116868;28;1112;-55
2023/07/18 10:17:08;;;;;;;;;;;;;;;33.34;49.12;95359.06;5116803;28;1036;-55
2023/07/18 10:19:45;;;;;;;;;;;;;;;33.42;46.75;95369.44;5116900;28;1909;-55
2023/07/18 10:22:11;;;;;;;;;;;;;;;33.50;45.37;95373.47;5116942;28;1059;-55
2023/07/18 10:24:48;;;;;;;;;;;;;;;33.52;42.29;95376.78;5116788;28;968;-55
2023/07/18 10:27:14;;;;;;;;;;;;;;;33.56;43.47;95368.69;5116550;28;981;-55
2023/07/18 10:29:41;;;;;;;;;;;;;;;33.61;45.38;95363.88;5116619;28;1048;-55
2023/07/18 10:32:10;;;;;;;;;;;;;;;33.65;46.42;95359.41;5116330;28;1384;-55
2023/07/18 10:34:37;;;;;;;;;;;;;;;33.58;43.72;95367.28;5116654;28;1027;-55
2023/07/18 10:37:09;;;;;;;;;;;;;;;33.39;46.20;95360.91;5116559;28;1039;-55
2023/07/18 10:39:38;;;;;;;;;;;;;;;33.33;44.86;95359.34;5116428;28;1993;-55
2023/07/18 10:42:08;;;;;;;;;;;;;;;33.47;46.43;95363.00;5116334;28;1043;-55
2023/07/18 10:44:36;;;;;;;;;;;;;;;33.52;46.28;95357.38;5116340;28;957;-55
2023/07/18 10:47:21;;;;;;;;;;;;;;;33.57;47.47;95356.47;5116555;28;965;-55
2023/07/18 10:49:47;;;;;;;;;;;;;;;33.39;47.32;95352.59;5116188;28;1065;-55
2023/07/18 10:52:19;;;;;;;;;;;;;;;33.13;46.39;95357.72;5116275;28;1048;-55
2023/07/18 10:54:55;;;;;;;;;;;;;;;33.14;46.13;95360.19;5116132;28;1044;-55
2023/07/18 10:57:25;;;;;;;;;;;;;;;33.25;48.35;95353.34;5116309;28;977;-55
2023/07/18 10:59:52;;;;;;;;;;;;;;;33.35;46.43;95355.16;5115915;28;1933;-55
2023/07/18 11:02:19;;;;;;;;;;;;;;;33.52;45.22;95360.13;5116125;27;1047;-55
2023/07/18 11:04:46;;;;;;;;;;;;;;;33.62;45.81;95362.75;5115978;28;1035;-55
2023/07/18 11:07:12;;;;;;;;;;;;;;;33.53;45.81;95359.03;5115929;28;1040;-56
2023/07/18 11:09:38;;;;;;;;;;;;;;;33.59;44.50;95346.72;5115873;28;1050;-55
2023/07/18 11:12:04;;;;;;;;;;;;;;;33.60;44.28;95356.69;5115975;28;1028;-55
2023/07/18 11:14:37;;;;;;;;;;;;;;;33.58;47.89;95342.31;5115911;28;1060;-55
2023/07/18 11:17:08;;;;;;;;;;;;;;;33.64;44.73;95345.88;5115756;28;1057;-55
2023/07/18 11:19:35;;;;;;;;;;;;;;;33.62;45.90;95343.34;5115651;28;1901;-55
2023/07/18 11:22:00;;;;;;;;;;;;;;;33.68;43.86;95346.91;5115584;28;937;-55
2023/07/18 11:24:27;;;;;;;;;;;;;;;33.53;42.06;95347.13;5115462;28;1143;-55
2023/07/18 11:27:11;;;;;;;;;;;;;;;33.58;42.28;95358.94;5115633;28;1024;-55
2023/07/18 11:29:37;;;;;;;;;;;;;;;33.60;42.47;95345.63;5115399;28;1072;-54
2023/07/18 11:32:03;;;;;;;;;;;;;;;33.61;43.11;95350.00;5115202;28;1092;-55
2023/07/18 11:34:30;;;;;;;;;;;;;;;33.61;41.96;95344.47;5115273;28;1088;-55
2023/07/18 11:36:56;;;;;;;;;;;;;;;33.60;39.48;95358.66;5115227;28;1996;-55
2023/07/18 11:39:22;;;;;;;;;;;;;;;33.50;39.83;95356.84;5114712;28;1905;-55
2023/07/18 11:41:48;;;;;;;;;;;;;;;33.65;41.27;95345.53;5115255;28;1055;-55
2023/07/18 11:44:23;;;;;;;;;;;;;;;33.62;42.10;95339.78;5115144;28;1055;-55
2023/07/18 11:46:51;;;;;;;;;;;;;;;33.64;41.14;95338.38;5115142;28;1043;-55
2023/07/18 11:49:31;;;;;;;;;;;;;;;33.62;40.87;95345.31;5115020;28;969;-55
2023/07/18 11:51:57;;;;;;;;;;;;;;;33.52;41.83;95343.50;5115180;28;1056;-55
2023/07/18 11:54:26;;;;;;;;;;;;;;;33.50;42.29;95328.31;5114979;28;1127;-55
2023/07/18 11:56:52;;;;;;;;;;;;;;;33.54;43.09;95329.34;5114836;28;1072;-55
2023/07/18 11:59:18;;;;;;;;;;;;;;;33.58;41.07;95338.69;5114821;28;1994;-55
2023/07/18 12:01:44;;;;;;;;;;;;;;;33.48;40.65;95327.81;5114770;28;959;-55
2023/07/18 12:04:12;;;;;;;;;;;;;;;33.48;39.95;95328.63;5114744;28;1883;-55
2023/07/18 12:06:39;;;;;;;;;;;;;;;33.56;41.14;95319.63;5114649;28;1101;-55
2023/07/18 12:09:04;;;;;;;;;;;;;;;33.67;43.16;95314.75;5114777;28;961;-55
2023/07/18 12:11:30;;;;;;;;;;;;;;;33.63;43.34;95322.84;5114742;28;985;-55
2023/07/18 12:13:58;;;;;;;;;;;;;;;33.66;42.67;95321.44;5114599;28;957;-54
2023/07/18 12:16:24;;;;;;;;;;;;;;;33.74;43.49;95320.72;5114489;28;1035;-54
2023/07/18 12:18:50;;;;;;;;;;;;;;;33.66;40.76;95324.19;5114640;28;1980;-54
2023/07/18 12:21:16;;;;;;;;;;;;;;;33.60;42.04;95328.97;5114653;28;987;-55
2023/07/18 12:23:42;;;;;;;;;;;;;;;33.58;41.26;95330.38;5114559;28;1017;-55
2023/07/18 12:26:08;;;;;;;;;;;;;;;33.60;41.17;95328.97;5113113;28;1057;-55
2023/07/18 12:28:34;;;;;;;;;;;;;;;33.65;41.60;95328.91;5114302;28;1080;-54
2023/07/18 12:31:00;;;;;;;;;;;;;;;33.68;40.57;95335.00;5112894;28;1404;-55
2023/07/18 12:33:26;;;;;;;;;;;;;;;33.22;39.71;95340.13;5114286;28;1053;-54
2023/07/18 12:35:52;;;;;;;;;;;;;;;33.20;40.74;95334.06;5114383;28;1042;-54
2023/07/18 12:38:18;;;;;;;;;;;;;;;33.23;41.54;95333.44;5114219;28;1664;-55
2023/07/18 12:40:44;;;;;;;;;;;;;;;33.33;42.16;95339.94;5114178;28;1909;-55
2023/07/18 12:43:10;;;;;;;;;;;;;;;33.31;41.24;95340.25;5114206;28;996;-55
2023/07/18 12:45:36;;;;;;;;;;;;;;;33.38;40.13;95339.88;5114112;28;1041;-54
2023/07/18 12:48:02;;;;;;;;;;;;;;;33.52;40.92;95335.19;5114280;28;1045;-54
2023/07/18 12:50:29;;;;;;;;;;;;;;;33.58;40.54;95334.00;5113246;28;1071;-54
2023/07/18 12:52:57;;;;;;;;;;;;;;;33.54;40.44;95332.97;5114150;28;1023;-54
2023/07/18 12:55:24;;;;;;;;;;;;;;;33.58;41.11;95328.47;5114022;28;1139;-55
2023/07/18 12:57:50;;;;;;;;;;;;;;;33.48;41.13;95336.94;5114006;28;790;-55
2023/07/18 13:00:16;;;;;;;;;;;;;;;33.42;40.30;95336.19;5113841;28;1917;-54
2023/07/18 13:02:42;;;;;;;;;;;;;;;33.45;39.42;95334.78;5114179;28;1016;-54